Time;durP1;ratioP1;P1;durP2;ratioP2;P2;SDS_P1;SDS_P2;PMS_P1;PMS_P2;Temp;Humidity;BMP_temperature;BMP_pressure;BME280_temperature;BME280_humidity;BME280_pressure;Samples;Min_cycle;Max_cycle;Signal;HPM_P1;HPM_P2
2020/12/15 00:00:11;;;;;;;1.70;1.60;;;7.10;99.90;;;;;;5013275;28;20385;-76
2020/12/15 00:02:37;;;;;;;1.43;1.33;;;7.30;99.90;;;;;;5012178;28;20392;-75
2020/12/15 00:05:04;;;;;;;1.80;1.30;;;6.40;99.90;;;;;;5012655;28;20416;-75
2020/12/15 00:07:30;;;;;;;2.30;1.50;;;7.80;99.90;;;;;;5012132;28;20420;-75
2020/12/15 00:09:56;;;;;;;4.03;1.80;;;6.60;99.90;;;;;;5012719;28;20381;-75
2020/12/15 00:12:22;;;;;;;2.07;1.67;;;6.50;99.90;;;;;;5012209;28;20416;-75
2020/12/15 00:14:47;;;;;;;1.90;1.50;;;6.60;99.90;;;;;;5012665;28;20470;-75
2020/12/15 00:17:13;;;;;;;2.17;1.40;;;6.60;99.90;;;;;;5012708;28;20373;-75
2020/12/15 00:19:39;;;;;;;1.60;1.50;;;7.00;99.90;;;;;;5011338;28;20403;-75
2020/12/15 00:22:06;;;;;;;1.40;1.30;;;6.60;99.90;;;;;;5012077;28;20397;-75
2020/12/15 00:24:32;;;;;;;1.80;1.50;;;6.50;99.90;;;;;;5010321;28;20412;-75
2020/12/15 00:26:59;;;;;;;2.58;1.20;;;8.50;99.90;;;;;;5012305;28;20411;-75
2020/12/15 00:29:24;;;;;;;1.73;1.60;;;6.90;99.90;;;;;;5011423;28;20408;-75
2020/12/15 00:31:50;;;;;;;1.70;1.30;;;7.00;99.90;;;;;;4996917;28;20398;-75
2020/12/15 00:34:16;;;;;;;1.20;1.10;;;7.90;99.90;;;;;;4992829;28;20864;-75
2020/12/15 00:36:41;;;;;;;1.42;1.33;;;7.00;99.90;;;;;;4991554;28;20576;-75
2020/12/15 00:39:07;;;;;;;1.20;1.10;;;6.80;99.90;;;;;;4991587;28;20836;-75
2020/12/15 00:41:33;;;;;;;1.17;1.08;;;6.80;99.90;;;;;;4991763;28;20383;-75
2020/12/15 00:43:59;;;;;;;1.50;1.20;;;7.00;99.90;;;;;;4992529;28;20509;-76
2020/12/15 00:46:25;;;;;;;0.80;0.80;;;7.40;99.90;;;;;;4991627;28;20806;-76
2020/12/15 00:48:50;;;;;;;1.10;0.70;;;7.10;99.90;;;;;;4992135;28;20390;-75
2020/12/15 00:51:17;;;;;;;1.95;0.80;;;9.10;99.90;;;;;;4992292;28;20383;-75
2020/12/15 00:53:44;;;;;;;0.50;0.50;;;7.20;99.90;;;;;;4991751;28;20397;-74
2020/12/15 00:56:10;;;;;;;1.00;0.70;;;7.40;99.90;;;;;;4992230;28;20847;-74
2020/12/15 00:58:36;;;;;;;0.85;0.70;;;9.20;99.90;;;;;;4991122;28;20417;-74
2020/12/15 01:01:04;;;;;;;0.50;0.50;;;7.20;99.90;;;;;;4992281;28;20523;-74
2020/12/15 01:03:30;;;;;;;0.90;0.70;;;7.20;99.90;;;;;;4991320;28;20437;-75
2020/12/15 01:05:56;;;;;;;1.33;0.60;;;7.20;99.90;;;;;;4992081;28;20910;-74
2020/12/15 01:08:21;;;;;;;0.65;0.40;;;7.90;99.90;;;;;;4991870;28;20418;-74
2020/12/15 01:10:47;;;;;;;0.60;0.60;;;7.40;99.90;;;;;;4991617;28;20399;-74
2020/12/15 01:13:13;;;;;;;0.60;0.50;;;8.80;99.90;;;;;;4991770;28;20501;-75
2020/12/15 01:15:38;;;;;;;0.90;0.70;;;8.00;99.90;;;;;;4991169;28;20391;-75
2020/12/15 01:18:04;;;;;;;0.80;0.50;;;8.20;99.90;;;;;;4991842;28;20398;-75
2020/12/15 01:20:29;;;;;;;1.17;0.53;;;8.00;99.90;;;;;;4991035;28;20847;-75
2020/12/15 01:22:55;;;;;;;0.70;0.50;;;7.80;99.90;;;;;;4991522;28;20401;-75
2020/12/15 01:25:21;;;;;;;1.20;0.80;;;7.90;99.90;;;;;;4991827;28;20413;-75
2020/12/15 01:27:46;;;;;;;0.50;0.43;;;9.10;99.90;;;;;;4991008;28;20918;-75
2020/12/15 01:30:12;;;;;;;1.23;0.70;;;9.50;99.90;;;;;;4992988;28;20506;-75
2020/12/15 01:32:37;;;;;;;0.50;0.50;;;7.90;99.90;;;;;;5010233;28;20892;-75
2020/12/15 01:35:03;;;;;;;1.60;0.70;;;8.90;99.90;;;;;;5011167;28;20388;-75
2020/12/15 01:37:29;;;;;;;0.80;0.57;;;7.70;99.90;;;;;;5010278;28;20381;-75
2020/12/15 01:39:54;;;;;;;1.60;0.70;;;8.80;99.90;;;;;;5011003;28;20451;-75
2020/12/15 01:42:20;;;;;;;0.60;0.52;;;7.60;99.90;;;;;;5010665;28;20400;-75
2020/12/15 01:44:45;;;;;;;0.93;0.60;;;7.40;99.90;;;;;;5008832;28;20466;-75
2020/12/15 01:47:14;;;;;;;0.80;0.60;;;7.80;99.90;;;;;;5010628;28;20397;-75
2020/12/15 01:49:41;;;;;;;1.10;0.70;;;7.30;99.90;;;;;;5010161;28;20464;-75
2020/12/15 01:52:07;;;;;;;0.53;0.50;;;7.80;99.90;;;;;;5010983;28;20417;-76
2020/12/15 01:54:33;;;;;;;1.30;0.70;;;7.30;99.90;;;;;;5010115;28;20416;-75
2020/12/15 01:56:59;;;;;;;2.40;0.73;;;7.10;99.90;;;;;;5010876;28;20927;-76
2020/12/15 01:59:27;;;;;;;0.70;0.68;;;9.20;99.90;;;;;;5010257;28;20405;-76
2020/12/15 02:01:53;;;;;;;0.50;0.50;;;8.50;99.90;;;;;;5010660;28;20377;-76
2020/12/15 02:04:18;;;;;;;2.80;1.15;;;7.30;99.90;;;;;;5010494;28;20409;-76
2020/12/15 02:06:47;;;;;;;1.20;0.80;;;9.10;99.90;;;;;;5010215;28;20431;-76
2020/12/15 02:09:14;;;;;;;1.00;0.85;;;9.30;99.90;;;;;;5011070;28;20392;-76
2020/12/15 02:11:40;;;;;;;1.60;1.40;;;7.20;99.90;;;;;;5010051;28;20385;-76
2020/12/15 02:14:06;;;;;;;1.80;0.80;;;8.50;99.90;;;;;;5010403;28;20396;-76
2020/12/15 02:16:33;;;;;;;0.73;0.60;;;7.70;99.90;;;;;;5010037;28;20389;-76
2020/12/15 02:18:58;;;;;;;1.08;0.60;;;7.60;99.90;;;;;;5009316;28;20404;-76
2020/12/15 02:21:24;;;;;;;0.60;0.50;;;8.10;99.90;;;;;;5010687;28;20384;-76
2020/12/15 02:23:49;;;;;;;0.60;0.50;;;8.40;99.90;;;;;;5009657;28;20419;-76
2020/12/15 02:26:15;;;;;;;0.73;0.50;;;8.00;99.90;;;;;;5010530;28;20472;-76
2020/12/15 02:28:41;;;;;;;0.63;0.53;;;7.30;99.90;;;;;;5008201;28;20878;-76
2020/12/15 02:31:07;;;;;;;0.70;0.50;;;8.70;99.90;;;;;;5000229;28;20407;-76
2020/12/15 02:33:33;;;;;;;0.93;0.65;;;8.50;99.90;;;;;;4990383;28;20401;-76
2020/12/15 02:35:59;;;;;;;1.45;1.00;;;7.80;99.90;;;;;;4990675;28;20394;-76
2020/12/15 02:38:24;;;;;;;2.50;1.80;;;8.90;99.90;;;;;;4990979;28;20390;-76
2020/12/15 02:40:50;;;;;;;2.87;2.30;;;9.20;99.90;;;;;;4988788;28;20390;-76
2020/12/15 02:43:16;;;;;;;4.03;2.80;;;7.50;99.90;;;;;;4990962;28;20393;-76
2020/12/15 02:45:41;;;;;;;3.40;3.10;;;9.40;99.90;;;;;;4989948;28;20430;-76
2020/12/15 02:48:08;;;;;;;3.27;2.80;;;8.10;99.90;;;;;;4990633;28;20398;-76
2020/12/15 02:50:33;;;;;;;3.88;2.70;;;7.10;99.90;;;;;;4990033;28;20382;-76
2020/12/15 02:52:59;;;;;;;3.30;2.70;;;7.30;99.90;;;;;;4990995;28;20449;-76
2020/12/15 02:55:25;;;;;;;2.30;1.97;;;8.90;99.90;;;;;;4990668;28;20391;-76
2020/12/15 02:57:50;;;;;;;2.60;1.30;;;7.90;99.90;;;;;;4989653;28;20529;-76
2020/12/15 03:00:18;;;;;;;2.20;1.30;;;7.10;99.90;;;;;;4990680;28;20401;-76
2020/12/15 03:02:46;;;;;;;2.05;1.00;;;7.20;99.90;;;;;;4991731;28;20390;-76
2020/12/15 03:05:11;;;;;;;0.70;0.70;;;8.40;99.90;;;;;;4994118;28;20411;-76
2020/12/15 03:07:37;;;;;;;0.70;0.50;;;7.10;99.90;;;;;;4993151;28;20394;-76
2020/12/15 03:10:05;;;;;;;0.80;0.60;;;8.40;99.90;;;;;;4994115;28;20409;-76
2020/12/15 03:12:31;;;;;;;0.50;0.40;;;8.30;99.90;;;;;;4993557;28;20505;-76
2020/12/15 03:14:56;;;;;;;0.55;0.50;;;7.70;99.90;;;;;;4993314;28;20422;-76
2020/12/15 03:17:22;;;;;;;2.03;0.68;;;9.70;99.90;;;;;;4993584;28;20489;-76
2020/12/15 03:19:47;;;;;;;0.68;0.47;;;8.40;99.90;;;;;;4992857;28;20399;-75
2020/12/15 03:22:14;;;;;;;0.60;0.60;;;7.70;99.90;;;;;;4993830;28;20863;-75
2020/12/15 03:24:40;;;;;;;1.50;0.50;;;7.80;99.90;;;;;;4993091;28;20421;-75
2020/12/15 03:27:06;;;;;;;1.30;0.60;;;8.10;99.90;;;;;;4993620;28;20771;-76
2020/12/15 03:29:32;;;;;;;0.90;0.60;;;9.30;99.90;;;;;;4993087;28;20519;-75
2020/12/15 03:31:57;;;;;;;0.50;0.50;;;8.30;99.90;;;;;;5009648;28;20431;-75
2020/12/15 03:34:23;;;;;;;0.90;0.40;;;9.60;99.90;;;;;;5013131;28;20853;-75
2020/12/15 03:36:49;;;;;;;0.80;0.60;;;8.30;99.90;;;;;;5012359;28;20384;-75
2020/12/15 03:39:14;;;;;;;0.82;0.60;;;9.20;99.90;;;;;;5013233;28;20396;-75
2020/12/15 03:41:40;;;;;;;0.90;0.70;;;8.50;99.90;;;;;;5012349;28;20388;-75
2020/12/15 03:44:06;;;;;;;1.10;0.60;;;8.70;99.90;;;;;;5012845;28;20413;-75
2020/12/15 03:46:32;;;;;;;0.98;0.80;;;9.10;99.90;;;;;;5012785;28;20385;-75
2020/12/15 03:48:58;;;;;;;0.80;0.60;;;7.70;99.90;;;;;;5012614;28;20377;-76
2020/12/15 03:51:23;;;;;;;0.90;0.80;;;9.00;99.90;;;;;;5011687;28;20436;-75
2020/12/15 03:53:49;;;;;;;0.80;0.70;;;9.30;99.90;;;;;;5012207;28;20389;-76
2020/12/15 03:56:14;;;;;;;1.50;0.60;;;7.90;99.90;;;;;;5012862;28;20381;-75
2020/12/15 03:58:41;;;;;;;1.00;0.80;;;8.10;99.90;;;;;;5011961;28;20729;-76
2020/12/15 04:01:07;;;;;;;0.90;0.70;;;9.10;99.90;;;;;;5012729;28;20400;-75
2020/12/15 04:03:33;;;;;;;1.50;0.73;;;9.10;99.90;;;;;;5012680;28;20380;-75
2020/12/15 04:05:58;;;;;;;0.70;0.68;;;7.90;99.90;;;;;;5011936;28;20951;-75
2020/12/15 04:08:25;;;;;;;1.90;0.70;;;8.70;99.90;;;;;;5012790;28;20428;-75
2020/12/15 04:10:52;;;;;;;0.82;0.65;;;7.60;99.90;;;;;;5011810;28;20388;-76
2020/12/15 04:13:18;;;;;;;1.30;0.80;;;8.40;99.90;;;;;;5011608;28;20392;-75
2020/12/15 04:15:44;;;;;;;1.10;0.70;;;7.90;99.90;;;;;;5011448;28;20375;-76
2020/12/15 04:18:09;;;;;;;0.50;0.50;;;9.70;99.90;;;;;;5012482;28;20384;-76
2020/12/15 04:20:35;;;;;;;0.82;0.60;;;9.10;99.90;;;;;;5012134;28;20789;-75
2020/12/15 04:23:00;;;;;;;0.80;0.70;;;8.80;99.90;;;;;;5011895;28;20416;-75
2020/12/15 04:25:26;;;;;;;1.33;0.70;;;8.40;99.90;;;;;;5012286;28;20491;-75
2020/12/15 04:27:52;;;;;;;1.80;0.60;;;7.90;99.90;;;;;;5011635;28;20405;-76
2020/12/15 04:30:19;;;;;;;2.72;1.40;;;7.60;99.90;;;;;;5008402;28;20419;-75
2020/12/15 04:32:46;;;;;;;4.35;2.50;;;7.90;99.90;;;;;;4991874;28;20386;-75
2020/12/15 04:35:12;;;;;;;1.92;1.02;;;9.30;99.90;;;;;;4992397;28;20873;-75
2020/12/15 04:37:38;;;;;;;0.77;0.70;;;7.60;99.90;;;;;;4991796;28;20383;-76
2020/12/15 04:40:04;;;;;;;0.95;0.90;;;7.90;99.90;;;;;;4992249;28;20422;-75
2020/12/15 04:42:30;;;;;;;0.90;0.90;;;7.70;99.90;;;;;;4992525;28;20379;-75
2020/12/15 04:44:56;;;;;;;0.70;0.70;;;7.90;99.90;;;;;;4991715;28;20415;-75
2020/12/15 04:47:43;;;;;;;0.68;0.55;;;8.00;99.90;;;;;;4992481;28;20481;-75
2020/12/15 04:50:11;;;;;;;0.80;0.70;;;7.60;99.90;;;;;;4992458;28;20445;-75
2020/12/15 04:52:56;;;;;;;0.68;0.60;;;7.60;99.90;;;;;;4992003;28;20391;-75
2020/12/15 04:55:23;;;;;;;1.00;0.73;;;7.60;99.90;;;;;;4992419;28;20724;-75
2020/12/15 04:57:49;;;;;;;0.87;0.80;;;8.10;99.90;;;;;;4991323;28;20798;-75
2020/12/15 05:00:17;;;;;;;1.25;0.60;;;8.70;99.90;;;;;;4992310;28;20748;-75
2020/12/15 05:02:51;;;;;;;0.82;0.80;;;7.70;99.90;;;;;;4990550;28;20390;-76
2020/12/15 05:05:17;;;;;;;0.60;0.50;;;7.90;99.90;;;;;;4992612;28;20414;-76
2020/12/15 05:07:44;;;;;;;1.30;0.60;;;8.70;99.90;;;;;;4991966;28;20393;-76
2020/12/15 05:10:13;;;;;;;2.42;0.80;;;8.20;99.90;;;;;;4992883;28;20413;-76
2020/12/15 05:12:42;;;;;;;0.60;0.60;;;8.10;99.90;;;;;;4990862;28;20389;-76
2020/12/15 05:15:09;;;;;;;1.80;0.60;;;7.70;99.90;;;;;;4992950;28;20448;-76
2020/12/15 05:17:35;;;;;;;1.10;0.70;;;7.50;99.90;;;;;;4992562;28;20393;-76
2020/12/15 05:20:03;;;;;;;1.13;0.60;;;9.20;99.90;;;;;;4991407;28;20399;-75
2020/12/15 05:22:58;;;;;;;0.90;0.50;;;7.70;99.90;;;;;;4992099;28;20442;-75
2020/12/15 05:25:28;;;;;;;0.70;0.70;;;7.70;99.90;;;;;;4985638;28;20419;-76
2020/12/15 05:27:56;;;;;;;1.17;0.70;;;7.60;99.90;;;;;;4991315;28;20461;-76
2020/12/15 05:30:22;;;;;;;1.15;0.70;;;7.70;99.90;;;;;;4991971;28;20407;-75
2020/12/15 05:32:53;;;;;;;0.80;0.70;;;7.70;99.90;;;;;;4990978;28;20793;-75
2020/12/15 05:35:33;;;;;;;1.35;0.60;;;7.90;99.90;;;;;;4992414;28;20469;-75
2020/12/15 05:38:01;;;;;;;0.80;0.70;;;7.60;99.90;;;;;;4991360;28;20544;-75
2020/12/15 05:40:27;;;;;;;0.70;0.65;;;7.70;99.90;;;;;;4992138;28;20807;-75
2020/12/15 05:42:58;;;;;;;0.73;0.70;;;8.20;99.90;;;;;;4990815;28;20386;-76
2020/12/15 05:45:26;;;;;;;0.73;0.70;;;9.10;99.90;;;;;;4991675;28;20410;-76
2020/12/15 05:48:06;;;;;;;1.52;0.90;;;7.70;99.90;;;;;;4991150;28;20397;-75
2020/12/15 05:50:32;;;;;;;1.23;0.90;;;7.60;99.90;;;;;;4990770;28;20705;-75
2020/12/15 05:53:03;;;;;;;3.00;1.80;;;8.30;99.90;;;;;;4992959;28;20377;-77
2020/12/15 05:55:30;;;;;;;1.60;1.40;;;9.80;99.90;;;;;;4991573;28;20398;-76
2020/12/15 05:57:57;;;;;;;1.80;1.35;;;8.00;99.90;;;;;;4990096;28;20426;-77
2020/12/15 06:00:27;;;;;;;1.65;1.10;;;7.80;99.90;;;;;;4990981;28;20871;-76
2020/12/15 06:02:57;;;;;;;1.35;1.15;;;7.60;99.90;;;;;;4990636;28;20390;-76
2020/12/15 06:05:26;;;;;;;2.55;1.50;;;7.50;99.90;;;;;;4991600;28;20462;-74
2020/12/15 06:07:54;;;;;;;1.35;0.95;;;8.10;99.90;;;;;;4990715;28;20390;-74
2020/12/15 06:10:20;;;;;;;2.40;1.50;;;7.90;99.90;;;;;;4991590;28;20417;-74
2020/12/15 06:12:49;;;;;;;1.23;1.05;;;7.70;99.90;;;;;;4990698;28;20478;-77
2020/12/15 06:15:15;;;;;;;1.65;1.10;;;7.80;99.90;;;;;;4991279;28;20905;-75
2020/12/15 06:17:48;;;;;;;1.50;1.10;;;8.00;99.90;;;;;;4991209;28;20382;-77
2020/12/15 06:20:19;;;;;;;1.45;0.90;;;7.70;99.90;;;;;;4991629;28;20390;-77
2020/12/15 06:22:51;;;;;;;2.60;1.20;;;9.30;99.90;;;;;;4990455;28;20383;-77
2020/12/15 06:25:25;;;;;;;2.10;1.30;;;7.60;99.90;;;;;;4991205;28;20484;-77
2020/12/15 06:28:06;;;;;;;1.45;1.00;;;7.50;99.90;;;;;;4990375;28;20953;-77
2020/12/15 06:30:34;;;;;;;0.80;0.80;;;7.40;99.90;;;;;;4996291;28;20407;-77
2020/12/15 06:33:05;;;;;;;1.63;0.98;;;7.90;99.90;;;;;;5010065;28;20431;-76
2020/12/15 06:35:32;;;;;;;0.90;0.90;;;7.30;99.90;;;;;;5010610;28;20381;-76
2020/12/15 06:37:58;;;;;;;2.30;1.08;;;7.10;99.90;;;;;;5003176;28;20394;-76
2020/12/15 06:40:24;;;;;;;2.30;1.37;;;7.40;99.90;;;;;;5004133;28;20377;-76
2020/12/15 06:42:54;;;;;;;1.20;1.00;;;7.40;99.90;;;;;;5004309;28;20427;-76
2020/12/15 06:45:22;;;;;;;1.70;1.20;;;7.40;99.90;;;;;;5005777;28;20451;-76
2020/12/15 06:48:05;;;;;;;2.20;1.30;;;9.90;99.90;;;;;;5003223;28;20399;-76
2020/12/15 06:50:51;;;;;;;2.00;1.30;;;8.10;99.90;;;;;;5005623;28;20753;-76
2020/12/15 06:53:19;;;;;;;1.92;1.55;;;7.40;99.90;;;;;;5003548;28;20429;-76
2020/12/15 06:55:45;;;;;;;3.08;1.70;;;7.50;99.90;;;;;;5010267;28;20432;-76
2020/12/15 06:58:22;;;;;;;2.65;1.15;;;7.30;99.90;;;;;;4997699;28;20445;-76
2020/12/15 07:00:48;;;;;;;2.13;1.45;;;7.40;99.90;;;;;;4998805;28;20802;-77
2020/12/15 07:03:15;;;;;;;2.40;1.23;;;7.30;99.90;;;;;;5005847;28;20390;-76
2020/12/15 07:05:41;;;;;;;2.17;1.20;;;8.20;99.90;;;;;;4995620;28;20422;-76
2020/12/15 07:08:09;;;;;;;1.00;0.90;;;7.90;99.90;;;;;;4998469;28;20905;-76
2020/12/15 07:10:40;;;;;;;1.48;1.10;;;8.30;99.90;;;;;;5000254;28;20485;-76
2020/12/15 07:13:05;;;;;;;3.70;1.10;;;7.30;99.90;;;;;;4994421;28;20796;-75
2020/12/15 07:15:34;;;;;;;1.73;1.23;;;9.10;99.90;;;;;;4994869;28;20422;-75
2020/12/15 07:18:02;;;;;;;1.83;1.70;;;7.60;99.90;;;;;;4994302;28;20386;-75
2020/12/15 07:20:28;;;;;;;2.25;1.50;;;7.60;99.90;;;;;;4995309;28;20421;-75
2020/12/15 07:22:53;;;;;;;2.20;1.38;;;7.70;99.90;;;;;;4992651;28;20390;-75
2020/12/15 07:25:20;;;;;;;1.10;0.93;;;8.70;99.90;;;;;;4994385;28;20402;-75
2020/12/15 07:27:47;;;;;;;2.67;1.37;;;5.70;99.90;;;;;;4994069;28;20406;-75
2020/12/15 07:30:22;;;;;;;2.35;1.20;;;8.50;99.90;;;;;;4996720;28;20465;-75
2020/12/15 07:32:49;;;;;;;3.28;2.97;;;8.00;99.90;;;;;;5012446;28;20392;-75
2020/12/15 07:35:23;;;;;;;1.42;1.33;;;8.10;99.90;;;;;;5014307;28;20486;-75
2020/12/15 07:37:51;;;;;;;1.30;1.20;;;7.80;99.90;;;;;;5013198;28;20416;-77
2020/12/15 07:40:17;;;;;;;1.80;1.60;;;8.70;99.90;;;;;;5013899;28;20478;-75
2020/12/15 07:43:00;;;;;;;1.95;1.50;;;7.80;99.90;;;;;;5013326;28;20793;-75
2020/12/15 07:45:31;;;;;;;1.20;1.10;;;7.80;99.90;;;;;;5013556;28;20412;-75
2020/12/15 07:47:57;;;;;;;2.50;1.60;;;8.40;99.90;;;;;;5013156;28;20812;-73
2020/12/15 07:50:28;;;;;;;1.77;1.60;;;7.70;99.90;;;;;;5013644;28;20381;-76
2020/12/15 07:52:55;;;;;;;1.60;1.30;;;9.90;99.90;;;;;;5013011;28;20376;-76
2020/12/15 07:55:23;;;;;;;1.43;1.30;;;9.50;99.90;;;;;;5013362;28;20419;-77
2020/12/15 07:57:49;;;;;;;2.00;1.60;;;8.00;99.90;;;;;;5012468;28;20845;-77
2020/12/15 08:00:18;;;;;;;3.00;1.50;;;8.00;99.90;;;;;;5013619;28;20458;-77
2020/12/15 08:02:44;;;;;;;2.17;1.50;;;8.40;99.90;;;;;;5013419;28;20834;-77
2020/12/15 08:05:12;;;;;;;2.35;1.60;;;8.30;99.90;;;;;;5012710;28;20432;-77
2020/12/15 08:08:01;;;;;;;2.80;1.90;;;8.30;99.90;;;;;;5013222;28;20467;-77
2020/12/15 08:10:29;;;;;;;2.80;1.30;;;8.20;99.90;;;;;;5013139;28;20861;-77
2020/12/15 08:12:57;;;;;;;1.65;1.40;;;8.30;99.90;;;;;;5012859;28;20455;-77
2020/12/15 08:15:23;;;;;;;2.83;1.65;;;8.30;99.90;;;;;;5013391;28;20388;-77
2020/12/15 08:17:51;;;;;;;1.45;1.35;;;8.60;99.90;;;;;;5012592;28;20865;-78
2020/12/15 08:20:27;;;;;;;1.93;1.43;;;8.50;99.90;;;;;;5013394;28;20420;-77
2020/12/15 08:23:22;;;;;;;2.50;1.50;;;8.50;99.90;;;;;;5012798;28;20389;-77
2020/12/15 08:25:48;;;;;;;1.60;1.30;;;8.90;99.90;;;;;;5006997;28;20425;-77
2020/12/15 08:28:21;;;;;;;1.75;1.13;;;8.70;99.90;;;;;;5012910;28;20389;-76
2020/12/15 08:30:48;;;;;;;2.60;1.40;;;8.80;99.90;;;;;;5006152;28;20426;-77
2020/12/15 08:33:44;;;;;;;3.20;1.60;;;8.60;99.90;;;;;;4992332;28;20397;-76
2020/12/15 08:36:11;;;;;;;7.40;1.50;;;8.90;99.90;;;;;;4984606;28;20410;-77
2020/12/15 08:38:42;;;;;;;3.17;1.40;;;8.80;99.90;;;;;;4993533;28;20383;-76
2020/12/15 08:41:14;;;;;;;1.70;1.20;;;8.90;99.90;;;;;;4991808;28;20740;-77
2020/12/15 08:43:40;;;;;;;1.70;1.47;;;8.90;99.90;;;;;;4993373;28;20823;-77
2020/12/15 08:46:18;;;;;;;2.03;1.83;;;9.10;99.90;;;;;;4992761;28;20414;-77
2020/12/15 08:48:44;;;;;;;3.20;1.55;;;8.80;99.90;;;;;;4993163;28;20395;-77
2020/12/15 08:51:15;;;;;;;2.17;1.58;;;8.90;99.90;;;;;;4992702;28;20390;-77
2020/12/15 08:53:42;;;;;;;1.50;1.40;;;9.00;99.90;;;;;;4993353;28;20394;-77
2020/12/15 08:56:15;;;;;;;1.70;1.30;;;9.20;99.90;;;;;;4991433;28;20866;-77
2020/12/15 08:58:43;;;;;;;1.52;1.33;;;9.10;99.90;;;;;;4993095;28;20395;-77
2020/12/15 09:01:10;;;;;;;3.28;1.70;;;9.10;99.90;;;;;;4991899;28;20782;-76
2020/12/15 09:03:44;;;;;;;2.10;1.90;;;9.10;99.90;;;;;;4992945;28;20390;-77
2020/12/15 09:06:10;;;;;;;3.00;1.80;;;9.00;99.90;;;;;;4992380;28;20654;-77
2020/12/15 09:08:46;;;;;;;2.70;1.92;;;9.10;99.90;;;;;;4992918;28;20395;-77
2020/12/15 09:11:13;;;;;;;2.80;1.90;;;9.00;99.90;;;;;;4992292;28;20389;-78
2020/12/15 09:13:39;;;;;;;2.13;1.92;;;8.80;99.90;;;;;;4992716;28;20394;-78
2020/12/15 09:16:05;;;;;;;2.60;1.92;;;9.10;99.90;;;;;;4992106;28;20528;-78
2020/12/15 09:18:32;;;;;;;2.15;1.90;;;8.90;99.90;;;;;;4992750;28;20389;-78
2020/12/15 09:21:12;;;;;;;3.45;2.00;;;9.00;99.90;;;;;;4991720;28;20383;-78
2020/12/15 09:23:38;;;;;;;3.50;1.73;;;9.00;99.90;;;;;;4992855;28;20433;-78
2020/12/15 09:26:04;;;;;;;2.50;1.80;;;9.20;99.90;;;;;;4991749;28;20418;-78
2020/12/15 09:28:30;;;;;;;1.75;1.48;;;9.00;99.90;;;;;;4992739;28;20399;-77
2020/12/15 09:30:57;;;;;;;3.00;1.90;;;9.10;99.90;;;;;;5000267;28;20512;-76
2020/12/15 09:33:23;;;;;;;2.13;1.83;;;9.30;99.90;;;;;;5012141;28;20408;-77
2020/12/15 09:35:49;;;;;;;2.17;1.98;;;9.10;99.90;;;;;;5012330;28;20726;-77
2020/12/15 09:38:15;;;;;;;2.38;2.00;;;9.10;99.90;;;;;;5011506;28;20373;-77
2020/12/15 09:40:41;;;;;;;1.80;1.70;;;9.00;99.90;;;;;;5011623;28;20387;-78
2020/12/15 09:43:07;;;;;;;2.22;1.63;;;8.60;99.90;;;;;;5011309;28;20464;-77
2020/12/15 09:45:34;;;;;;;4.70;1.95;;;9.20;99.90;;;;;;5011907;28;20413;-77
2020/12/15 09:48:02;;;;;;;2.05;1.65;;;9.10;99.90;;;;;;5011214;28;20418;-77
2020/12/15 09:50:34;;;;;;;3.25;2.00;;;9.30;99.90;;;;;;5011710;28;20385;-77
2020/12/15 09:53:00;;;;;;;2.67;1.90;;;9.70;99.90;;;;;;5011370;28;20388;-77
2020/12/15 09:55:27;;;;;;;4.18;1.80;;;9.50;99.90;;;;;;5011095;28;20904;-77
2020/12/15 09:57:53;;;;;;;2.03;1.83;;;9.40;99.90;;;;;;5009745;28;20412;-78
2020/12/15 10:00:20;;;;;;;2.30;1.70;;;9.30;99.90;;;;;;5010286;28;20396;-77
2020/12/15 10:02:46;;;;;;;2.55;1.80;;;9.60;99.90;;;;;;5011429;28;20388;-77
2020/12/15 10:05:12;;;;;;;3.72;1.92;;;9.30;99.90;;;;;;5010316;28;20404;-77
2020/12/15 10:07:38;;;;;;;3.30;1.70;;;9.70;99.90;;;;;;5011280;28;20416;-77
2020/12/15 10:10:08;;;;;;;2.37;1.60;;;10.10;99.90;;;;;;5010224;28;20488;-77
2020/12/15 10:12:34;;;;;;;2.00;1.80;;;9.80;99.90;;;;;;5010048;28;20385;-77
2020/12/15 10:15:00;;;;;;;1.95;1.70;;;9.90;99.90;;;;;;5010131;28;20393;-78
2020/12/15 10:17:27;;;;;;;3.15;1.75;;;10.00;99.90;;;;;;5010918;28;20389;-77
2020/12/15 10:19:53;;;;;;;2.58;1.80;;;10.20;99.90;;;;;;5010787;28;20815;-77
2020/12/15 10:22:19;;;;;;;2.40;1.60;;;10.20;99.90;;;;;;5010503;28;20408;-76
2020/12/15 10:24:45;;;;;;;1.92;1.63;;;10.40;99.90;;;;;;5010593;28;20778;-77
2020/12/15 10:27:11;;;;;;;4.77;3.47;;;10.30;99.90;;;;;;5010114;28;20530;-77
2020/12/15 10:29:38;;;;;;;8.10;6.20;;;10.30;99.90;;;;;;5010758;28;20877;-77
2020/12/15 10:32:05;;;;;;;9.68;7.72;;;10.00;99.90;;;;;;4991616;28;20879;-78
2020/12/15 10:34:31;;;;;;;9.85;6.25;;;10.00;99.90;;;;;;4991288;28;20390;-76
2020/12/15 10:36:57;;;;;;;8.88;7.63;;;9.30;99.90;;;;;;4990770;28;20867;-77
2020/12/15 10:39:24;;;;;;;10.60;7.28;;;9.00;99.90;;;;;;4990275;28;20397;-77
2020/12/15 10:41:51;;;;;;;10.68;7.50;;;8.90;99.90;;;;;;4991185;28;20426;-76
2020/12/15 10:44:17;;;;;;;9.43;7.00;;;8.90;99.90;;;;;;4990285;28;20417;-76
2020/12/15 10:46:45;;;;;;;9.45;7.20;;;8.80;99.90;;;;;;4990828;28;20414;-76
2020/12/15 10:49:12;;;;;;;9.90;7.00;;;8.70;99.90;;;;;;4990450;28;20387;-76
2020/12/15 10:51:38;;;;;;;8.48;7.57;;;8.70;99.90;;;;;;5003523;28;20403;-77
2020/12/15 10:54:07;;;;;;;8.20;6.90;;;8.70;99.90;;;;;;5009336;28;20469;-76
2020/12/15 10:56:33;;;;;;;9.13;7.55;;;8.80;99.90;;;;;;5009828;28;20381;-77
2020/12/15 10:59:00;;;;;;;10.00;7.00;;;8.80;99.90;;;;;;4989506;28;20441;-78
2020/12/15 11:01:28;;;;;;;7.93;6.83;;;8.90;99.90;;;;;;4992307;28;20459;-78
2020/12/15 11:03:54;;;;;;;9.45;6.95;;;8.80;99.90;;;;;;4986800;28;20448;-78
2020/12/15 11:06:25;;;;;;;8.10;6.50;;;9.00;99.90;;;;;;4994709;28;20470;-79
2020/12/15 11:08:51;;;;;;;8.52;6.05;;;9.00;99.90;;;;;;4991124;28;20414;-78
2020/12/15 11:11:17;;;;;;;7.75;6.72;;;9.10;99.90;;;;;;4987889;28;20557;-78
2020/12/15 11:13:43;;;;;;;9.43;6.80;;;8.70;99.90;;;;;;4991790;28;20393;-79
2020/12/15 11:16:09;;;;;;;7.57;6.28;;;8.90;99.90;;;;;;4992949;28;20388;-79
2020/12/15 11:18:35;;;;;;;7.80;7.00;;;8.90;99.90;;;;;;4989154;28;20879;-80
2020/12/15 11:21:01;;;;;;;7.78;6.60;;;9.10;99.90;;;;;;4991267;28;20760;-79
2020/12/15 11:23:27;;;;;;;11.45;6.82;;;9.20;99.90;;;;;;4993152;28;20459;-79
2020/12/15 11:25:53;;;;;;;9.77;7.50;;;9.20;99.90;;;;;;4992235;28;20980;-79
2020/12/15 11:28:19;;;;;;;10.25;7.55;;;9.10;99.90;;;;;;4992040;28;20405;-79
2020/12/15 11:30:45;;;;;;;8.65;7.75;;;9.30;99.90;;;;;;4994639;28;20398;-79
2020/12/15 11:33:11;;;;;;;10.25;7.50;;;9.20;99.90;;;;;;4994614;28;20792;-78
2020/12/15 11:35:37;;;;;;;10.02;7.72;;;9.20;99.90;;;;;;4995640;28;20402;-78
2020/12/15 11:38:04;;;;;;;10.48;7.80;;;9.30;99.90;;;;;;4994163;28;20389;-79
2020/12/15 11:40:30;;;;;;;10.50;7.40;;;9.20;99.90;;;;;;4993317;28;20430;-80
2020/12/15 11:42:57;;;;;;;9.73;8.00;;;9.20;99.90;;;;;;4992525;28;20465;-80
2020/12/15 11:45:25;;;;;;;7.80;7.00;;;9.20;99.90;;;;;;4995817;28;20482;-80
2020/12/15 11:47:54;;;;;;;10.70;8.20;;;8.70;99.90;;;;;;4994156;28;20875;-80
2020/12/15 11:50:20;;;;;;;9.70;7.70;;;8.90;99.90;;;;;;4988079;28;21300;-80
2020/12/15 11:52:46;;;;;;;10.07;7.78;;;9.30;99.90;;;;;;4996182;28;20863;-79
2020/12/15 11:55:12;;;;;;;9.40;7.50;;;9.30;99.90;;;;;;4995107;28;20416;-80
2020/12/15 11:57:38;;;;;;;9.80;7.68;;;9.30;99.90;;;;;;4989302;28;20410;-80
2020/12/15 12:00:08;;;;;;;10.60;7.93;;;9.50;99.90;;;;;;4992256;28;20406;-80
2020/12/15 12:02:34;;;;;;;9.38;7.60;;;9.40;99.90;;;;;;4995407;28;20388;-79
2020/12/15 12:05:00;;;;;;;9.93;8.00;;;9.30;99.90;;;;;;4992204;28;20516;-79
2020/12/15 12:07:25;;;;;;;7.93;7.10;;;9.30;99.90;;;;;;4992965;28;20399;-79
2020/12/15 12:09:51;;;;;;;7.97;7.17;;;9.40;99.90;;;;;;4993254;28;20472;-78
2020/12/15 12:12:17;;;;;;;9.37;7.70;;;9.50;99.90;;;;;;4990978;28;20445;-78
2020/12/15 12:14:43;;;;;;;10.45;7.50;;;9.50;99.90;;;;;;4992557;28;20863;-79
2020/12/15 12:17:08;;;;;;;8.90;8.00;;;9.40;99.90;;;;;;4990374;28;20419;-79
2020/12/15 12:19:34;;;;;;;8.45;6.70;;;9.60;99.90;;;;;;4992254;28;20383;-79
2020/12/15 12:22:00;;;;;;;10.82;7.60;;;9.50;99.90;;;;;;4992182;28;20460;-79
2020/12/15 12:24:26;;;;;;;8.15;6.63;;;9.50;99.90;;;;;;4989878;28;20532;-79
2020/12/15 12:26:51;;;;;;;10.95;7.00;;;9.70;99.90;;;;;;4991134;28;20505;-79
2020/12/15 12:29:19;;;;;;;9.05;7.28;;;9.60;99.90;;;;;;4990487;28;20887;-79
2020/12/15 12:31:49;;;;;;;8.85;6.10;;;9.60;99.90;;;;;;5006836;28;20412;-79
2020/12/15 12:34:15;;;;;;;8.55;6.53;;;9.70;99.90;;;;;;5008750;28;20896;-79
2020/12/15 12:36:41;;;;;;;7.73;6.90;;;9.70;99.90;;;;;;4993449;28;20386;-79
2020/12/15 12:39:07;;;;;;;9.38;6.95;;;9.80;99.90;;;;;;4991313;28;20453;-79
2020/12/15 12:41:33;;;;;;;6.47;5.33;;;9.80;99.90;;;;;;4992135;28;20417;-79
2020/12/15 12:43:59;;;;;;;4.55;3.42;;;;;;;;;;4992494;28;20489;-78
2020/12/15 12:46:25;;;;;;;4.78;4.28;;;9.70;99.90;;;;;;4990762;28;21100;-78
2020/12/15 12:48:51;;;;;;;4.97;4.47;;;10.00;99.90;;;;;;4993534;28;20432;-79
2020/12/15 12:51:17;;;;;;;6.10;4.80;;;10.00;99.90;;;;;;4990603;28;20390;-79
2020/12/15 12:53:44;;;;;;;8.80;5.63;;;10.00;99.90;;;;;;4992066;28;20395;-79
2020/12/15 12:56:11;;;;;;;6.13;5.53;;;10.00;99.90;;;;;;4990861;28;20395;-79